Time;durP1;ratioP1;P1;durP2;ratioP2;P2;SDS_P1;SDS_P2;PMS_P1;PMS_P2;Temp;Humidity;BMP_temperature;BMP_pressure;BME280_temperature;BME280_humidity;BME280_pressure;Samples;Min_cycle;Max_cycle;Signal;HPM_P1;HPM_P2
2021/03/04 00:00:18;;;;;;;;;;;7.90;68.70;;;;;;5042126;28;19920;-73
2021/03/04 00:02:44;;;;;;;;;;;7.90;70.10;;;;;;5058842;28;19912;-74
2021/03/04 00:05:10;;;;;;;;;;;7.80;69.90;;;;;;5072725;28;19913;-73
2021/03/04 00:07:36;;;;;;;;;;;7.70;71.80;;;;;;5055714;28;19999;-72
2021/03/04 00:10:05;;;;;;;;;;;7.80;69.90;;;;;;5062159;28;20006;-73
2021/03/04 00:12:30;;;;;;;;;;;7.70;72.70;;;;;;5059993;28;20004;-73
2021/03/04 00:14:56;;;;;;;;;;;7.60;72.70;;;;;;5052326;28;20001;-73
2021/03/04 00:17:21;;;;;;;;;;;7.60;73.00;;;;;;5056475;28;19913;-73
2021/03/04 00:19:47;;;;;;;;;;;7.80;67.00;;;;;;5059511;28;19912;-73
2021/03/04 00:22:12;;;;;;;;;;;8.10;64.90;;;;;;5070599;28;19917;-73
2021/03/04 00:24:38;;;;;;;;;;;8.50;64.40;;;;;;5059736;28;19970;-73
2021/03/04 00:27:03;;;;;;;;;;;8.40;68.90;;;;;;5059155;28;19939;-73
2021/03/04 00:29:29;;;;;;;;;;;8.30;69.30;;;;;;5056139;28;19919;-73
2021/03/04 00:31:55;;;;;;;;;;;8.20;69.90;;;;;;5058015;28;20289;-73
2021/03/04 00:34:20;;;;;;;;;;;8.00;70.40;;;;;;5037488;28;19956;-74
2021/03/04 00:36:46;;;;;;;;;;;7.90;71.10;;;;;;5054614;28;19948;-74
2021/03/04 00:39:11;;;;;;;;;;;7.80;72.50;;;;;;5059466;28;19966;-73
2021/03/04 00:41:37;;;;;;;;;;;7.70;74.50;;;;;;5057026;28;20360;-73
2021/03/04 00:44:03;;;;;;;;;;;7.50;76.40;;;;;;5061722;28;19940;-73
2021/03/04 00:46:29;;;;;;;;;;;7.40;77.20;;;;;;5067657;28;20262;-73
2021/03/04 00:48:54;;;;;;;;;;;7.40;77.40;;;;;;5074067;28;19908;-73
2021/03/04 00:51:20;;;;;;;;;;;7.40;76.50;;;;;;5070475;28;20281;-72
2021/03/04 00:53:45;;;;;;;;;;;7.40;75.30;;;;;;5066110;28;20007;-73
2021/03/04 00:56:11;;;;;;;;;;;7.40;75.40;;;;;;5069044;28;19908;-73
2021/03/04 00:58:39;;;;;;;;;;;7.50;73.70;;;;;;5057092;28;19913;-74
2021/03/04 01:01:05;;;;;;;;;;;7.60;72.10;;;;;;5042497;28;19916;-73
2021/03/04 01:03:31;;;;;;;;;;;7.60;71.80;;;;;;5055369;28;20254;-74
2021/03/04 01:05:56;;;;;;;;;;;7.60;75.20;;;;;;5055826;28;19909;-73
2021/03/04 01:08:21;;;;;;;;;;;7.50;75.60;;;;;;5065784;28;19947;-73
2021/03/04 01:10:47;;;;;;;;;;;7.40;76.00;;;;;;5056082;28;20007;-73
2021/03/04 01:13:13;;;;;;;;;;;7.40;75.20;;;;;;5056083;28;19948;-73
2021/03/04 01:15:38;;;;;;;;;;;7.40;74.30;;;;;;5055978;28;19939;-73
2021/03/04 01:18:05;;;;;;;;;;;7.30;76.80;;;;;;5053651;28;19916;-72
2021/03/04 01:20:30;;;;;;;;;;;7.10;77.20;;;;;;5062797;28;19909;-74
2021/03/04 01:22:56;;;;;;;;;;;7.10;76.60;;;;;;5055987;28;20340;-73
2021/03/04 01:25:21;;;;;;;;;;;7.00;76.60;;;;;;5055581;28;19923;-73
2021/03/04 01:27:49;;;;;;;;;;;7.10;76.50;;;;;;5055962;28;19978;-74
2021/03/04 01:30:15;;;;;;;;;;;7.00;75.60;;;;;;5053848;28;19912;-74
2021/03/04 01:32:40;;;;;;;;;;;7.10;75.60;;;;;;5058215;28;20319;-73
2021/03/04 01:35:07;;;;;;;;;;;7.10;74.70;;;;;;5045512;28;19916;-72
2021/03/04 01:37:32;;;;;;;;;;;7.20;72.50;;;;;;5055691;28;19916;-72
2021/03/04 01:39:58;;;;;;;;;;;7.10;77.40;;;;;;5055439;28;19909;-72
2021/03/04 01:42:24;;;;;;;;;;;7.10;75.80;;;;;;5057444;28;20348;-72
2021/03/04 01:44:49;;;;;;;;;;;7.00;77.10;;;;;;5058860;28;19908;-74
2021/03/04 01:47:15;;;;;;;;;;;7.00;76.90;;;;;;5052796;28;19915;-73
2021/03/04 01:49:41;;;;;;;;;;;7.00;75.20;;;;;;5057341;28;19974;-74
2021/03/04 01:52:07;;;;;;;;;;;6.90;75.00;;;;;;5066720;28;20417;-73
2021/03/04 01:54:33;;;;;;;;;;;7.00;74.40;;;;;;5055867;28;19909;-73
2021/03/04 01:56:58;;;;;;;;;;;7.00;76.90;;;;;;5055830;28;20190;-73
2021/03/04 01:59:24;;;;;;;;;;;6.90;77.60;;;;;;5060877;28;19967;-73
2021/03/04 02:04:53;;;;;;;;;;;6.80;75.70;;;;;;5062534;28;19934;-73
2021/03/04 02:07:18;;;;;;;;;;;6.90;72.50;;;;;;5047335;28;19917;-73
2021/03/04 02:09:48;;;;;;;;;;;7.00;71.50;;;;;;5056458;28;19942;-74
2021/03/04 02:12:19;;;;;;;;;;;7.10;72.20;;;;;;5053289;28;19989;-74
2021/03/04 02:14:48;;;;;;;;;;;7.00;72.30;;;;;;5054078;28;19909;-73
2021/03/04 02:17:14;;;;;;;;;;;7.10;73.00;;;;;;5054092;28;20003;-73
2021/03/04 02:19:58;;;;;;;;;;;7.00;72.30;;;;;;5042457;28;19908;-74
2021/03/04 02:22:30;;;;;;;;;;;7.10;71.90;;;;;;5071311;28;19951;-73
2021/03/04 02:25:01;;;;;;;;;;;6.90;73.50;;;;;;5055238;28;19917;-73
2021/03/04 02:27:27;;;;;;;;;;;6.80;73.90;;;;;;5062309;28;19909;-73
2021/03/04 02:30:13;;;;;;;;;;;6.80;73.70;;;;;;5055891;28;19953;-74
2021/03/04 02:32:44;;;;;;;;;;;6.70;73.30;;;;;;5060032;28;19909;-73
2021/03/04 02:35:17;;;;;;;;;;;6.70;75.40;;;;;;5049338;28;19912;-73
2021/03/04 02:37:45;;;;;;;;;;;6.60;75.90;;;;;;5061275;28;19908;-74
2021/03/04 02:40:12;;;;;;;;;;;6.60;74.10;;;;;;5059464;28;19913;-73
2021/03/04 02:42:39;;;;;;;;;;;6.70;73.20;;;;;;5055990;28;19915;-73
2021/03/04 02:45:05;;;;;;;;;;;6.70;73.80;;;;;;5064391;28;19961;-73
2021/03/04 02:47:31;;;;;;;;;;;6.70;73.40;;;;;;5056937;28;19963;-73
2021/03/04 02:49:57;;;;;;;;;;;6.80;72.50;;;;;;5059219;28;19978;-73
2021/03/04 02:52:22;;;;;;;;;;;6.70;74.00;;;;;;5058124;28;19909;-73
2021/03/04 02:54:48;;;;;;;;;;;6.70;75.20;;;;;;5054021;28;20205;-73
2021/03/04 02:57:15;;;;;;;;;;;6.70;74.40;;;;;;5043329;28;19955;-73
2021/03/04 02:59:41;;;;;;;;;;;6.70;74.10;;;;;;5057925;28;19913;-73
2021/03/04 03:02:07;;;;;;;;;;;6.80;73.20;;;;;;5057019;28;19912;-73
2021/03/04 03:04:34;;;;;;;;;;;6.80;73.50;;;;;;5059145;28;20198;-73
2021/03/04 03:07:01;;;;;;;;;;;6.80;71.80;;;;;;5046565;28;19908;-73
2021/03/04 03:09:27;;;;;;;;;;;6.90;70.80;;;;;;5061542;28;19972;-73
2021/03/04 03:11:52;;;;;;;;;;;6.90;70.90;;;;;;5062287;28;19940;-73
2021/03/04 03:14:18;;;;;;;;;;;7.00;70.50;;;;;;5060870;28;19912;-73
2021/03/04 03:16:44;;;;;;;;;;;7.00;70.40;;;;;;5048201;28;19945;-73
2021/03/04 03:19:10;;;;;;;;;;;7.00;71.50;;;;;;5055722;28;19909;-73
2021/03/04 03:21:35;;;;;;;;;;;7.00;71.80;;;;;;5052564;28;19938;-74
2021/03/04 03:24:01;;;;;;;;;;;6.90;71.10;;;;;;5070363;28;19955;-73
2021/03/04 03:26:27;;;;;;;;;;;7.00;71.00;;;;;;5061864;28;19932;-73
2021/03/04 03:28:52;;;;;;;;;;;7.10;69.40;;;;;;5057666;28;19987;-73
2021/03/04 03:31:20;;;;;;;;;;;7.20;68.90;;;;;;5056715;28;19912;-73
2021/03/04 03:33:45;;;;;;;;;;;7.20;70.10;;;;;;5037316;28;19947;-73
2021/03/04 03:36:11;;;;;;;;;;;7.20;72.40;;;;;;5060255;28;19912;-72
2021/03/04 03:38:38;;;;;;;;;;;7.00;73.30;;;;;;5041924;28;19959;-73
2021/03/04 03:41:03;;;;;;;;;;;6.90;72.80;;;;;;5059032;28;19938;-73
2021/03/04 03:43:29;;;;;;;;;;;6.90;72.20;;;;;;5064805;28;19919;-73
2021/03/04 03:45:55;;;;;;;;;;;6.90;71.90;;;;;;5057549;28;19932;-73
2021/03/04 03:48:22;;;;;;;;;;;6.90;71.60;;;;;;5040298;28;19919;-73
2021/03/04 03:50:49;;;;;;;;;;;6.90;71.70;;;;;;5064689;28;19912;-73
2021/03/04 03:53:15;;;;;;;;;;;7.00;70.50;;;;;;5063627;28;20310;-73
2021/03/04 03:55:41;;;;;;;;;;;7.00;73.00;;;;;;5072153;28;19915;-73
2021/03/04 03:58:07;;;;;;;;;;;6.90;73.10;;;;;;5057060;28;19962;-72
2021/03/04 04:00:33;;;;;;;;;;;6.80;73.90;;;;;;5055744;28;20007;-73
2021/03/04 04:03:00;;;;;;;;;;;6.70;74.20;;;;;;5054060;28;20058;-73
2021/03/04 04:05:26;;;;;;;;;;;6.60;74.40;;;;;;5021229;28;19912;-73
2021/03/04 04:07:55;;;;;;;;;;;6.60;72.80;;;;;;5057882;28;20280;-74
2021/03/04 04:10:22;;;;;;;;;;;6.70;70.40;;;;;;5051754;28;20001;-73
2021/03/04 04:12:47;;;;;;;;;;;6.80;70.50;;;;;;5059535;28;19919;-73
2021/03/04 04:15:13;;;;;;;;;;;6.80;71.60;;;;;;5066961;28;19908;-73
2021/03/04 04:17:39;;;;;;;;;;;6.80;71.20;;;;;;5058704;28;19923;-73
2021/03/04 04:20:05;;;;;;;;;;;6.80;71.50;;;;;;5060661;28;19919;-73
2021/03/04 04:22:31;;;;;;;;;;;6.70;73.10;;;;;;5044669;28;19909;-73
2021/03/04 04:24:57;;;;;;;;;;;6.70;72.90;;;;;;5047253;28;19938;-74
2021/03/04 04:27:23;;;;;;;;;;;6.60;73.10;;;;;;5058071;28;20209;-73
2021/03/04 04:29:48;;;;;;;;;;;6.70;72.60;;;;;;5056703;28;19919;-72
2021/03/04 04:32:14;;;;;;;;;;;6.60;71.70;;;;;;5055890;28;19908;-72
2021/03/04 04:34:39;;;;;;;;;;;6.70;71.30;;;;;;5071241;28;19913;-73
2021/03/04 04:37:05;;;;;;;;;;;6.70;73.30;;;;;;5055832;28;19912;-72
2021/03/04 04:39:30;;;;;;;;;;;6.60;74.40;;;;;;5059616;28;20293;-73
2021/03/04 04:41:56;;;;;;;;;;;6.50;74.70;;;;;;5055160;28;19909;-73
2021/03/04 04:44:22;;;;;;;;;;;6.50;74.90;;;;;;5056579;28;19908;-73
2021/03/04 04:46:47;;;;;;;;;;;6.50;74.80;;;;;;5061093;28;20275;-73
2021/03/04 04:49:13;;;;;;;;;;;6.40;73.60;;;;;;5051918;28;20320;-73
2021/03/04 04:51:41;;;;;;;;;;;6.50;72.30;;;;;;5058645;28;19913;-73
2021/03/04 04:54:07;;;;;;;;;;;6.60;70.80;;;;;;5066138;28;20205;-74
2021/03/04 04:56:32;;;;;;;;;;;6.60;73.00;;;;;;5054934;28;19909;-73
2021/03/04 04:58:58;;;;;;;;;;;6.70;70.20;;;;;;5056719;28;19905;-72
2021/03/04 05:01:23;;;;;;;;;;;6.80;69.60;;;;;;5053471;28;19912;-73
2021/03/04 05:03:49;;;;;;;;;;;6.90;69.70;;;;;;5056864;28;20282;-73
2021/03/04 05:06:14;;;;;;;;;;;7.00;70.60;;;;;;5069975;28;19913;-73
2021/03/04 05:08:40;;;;;;;;;;;7.00;73.40;;;;;;5061036;28;19947;-73
2021/03/04 05:11:05;;;;;;;;;;;6.80;73.40;;;;;;5055122;28;19914;-73
2021/03/04 05:13:31;;;;;;;;;;;6.80;72.90;;;;;;5051696;28;20217;-73
2021/03/04 05:15:56;;;;;;;;;;;6.80;70.70;;;;;;5064099;28;19908;-73
2021/03/04 05:18:22;;;;;;;;;;;6.90;70.10;;;;;;5060155;28;19917;-74
2021/03/04 05:20:47;;;;;;;;;;;6.90;71.90;;;;;;5059787;28;19916;-74
2021/03/04 05:23:13;;;;;;;;;;;6.90;72.00;;;;;;5059818;28;20259;-73
2021/03/04 05:25:38;;;;;;;;;;;6.90;72.80;;;;;;5052209;28;20232;-73
2021/03/04 05:28:04;;;;;;;;;;;6.90;71.50;;;;;;5056238;28;19908;-73
2021/03/04 05:30:29;;;;;;;;;;;7.10;69.70;;;;;;5039285;28;19962;-73
2021/03/04 05:32:55;;;;;;;;;;;7.20;70.20;;;;;;5046950;28;19912;-73
2021/03/04 05:35:21;;;;;;;;;;;7.30;69.00;;;;;;5048279;28;19917;-73
2021/03/04 05:37:46;;;;;;;;;;;7.50;68.10;;;;;;5028993;28;19939;-73
2021/03/04 05:40:12;;;;;;;;;;;7.40;70.50;;;;;;5037723;28;19908;-73
2021/03/04 05:42:41;;;;;;;;;;;7.10;72.70;;;;;;5043747;28;19963;-74
2021/03/04 05:45:07;;;;;;;;;;;7.00;72.90;;;;;;5054672;28;19962;-74
2021/03/04 05:47:33;;;;;;;;;;;7.00;70.40;;;;;;5031605;28;19910;-74
2021/03/04 05:50:00;;;;;;;;;;;7.10;69.80;;;;;;5050758;28;19943;-73
2021/03/04 05:52:29;;;;;;;;;;;7.20;68.90;;;;;;5055625;28;19909;-73
2021/03/04 05:54:55;;;;;;;;;;;7.30;68.60;;;;;;5053885;28;20217;-73
2021/03/04 05:57:21;;;;;;;;;;;7.10;72.90;;;;;;5055569;28;20248;-73
2021/03/04 05:59:50;;;;;;;;;;;6.70;73.80;;;;;;5041650;28;19940;-73
2021/03/04 06:02:17;;;;;;;;;;;6.50;73.50;;;;;;5049853;28;20326;-73
2021/03/04 06:04:43;;;;;;;;;;;6.40;73.90;;;;;;5027116;28;19935;-73
2021/03/04 06:07:09;;;;;;;;;;;6.10;75.30;;;;;;5053123;28;20255;-73
2021/03/04 06:09:34;;;;;;;;;;;6.00;75.80;;;;;;5054527;28;19912;-73
2021/03/04 06:12:00;;;;;;;;;;;6.00;75.40;;;;;;5054491;28;19916;-73
2021/03/04 06:14:26;;;;;;;;;;;5.90;76.30;;;;;;5048184;28;19913;-73
2021/03/04 06:16:52;;;;;;;;;;;5.90;76.70;;;;;;5049229;28;19927;-73
2021/03/04 06:19:18;;;;;;;;;;;5.90;76.40;;;;;;5054025;28;20000;-73
2021/03/04 06:21:44;;;;;;;;;;;5.90;75.20;;;;;;5055098;28;20233;-74
2021/03/04 06:24:15;;;;;;;;;;;6.00;75.00;;;;;;5044255;28;19917;-73
2021/03/04 06:26:41;;;;;;;;;;;6.20;72.30;;;;;;5047467;28;19909;-73
2021/03/04 06:29:10;;;;;;;;;;;6.40;71.50;;;;;;5055445;28;19912;-73
2021/03/04 06:31:36;;;;;;;;;;;6.60;71.10;;;;;;5054064;28;20319;-73
2021/03/04 06:34:01;;;;;;;;;;;6.70;71.70;;;;;;5055357;28;19904;-73
2021/03/04 06:36:27;;;;;;;;;;;6.60;70.40;;;;;;5054508;28;19962;-73
2021/03/04 06:38:56;;;;;;;;;;;6.70;72.70;;;;;;5047184;28;19988;-73
2021/03/04 06:41:22;;;;;;;;;;;6.70;71.00;;;;;;5044127;28;20270;-73
2021/03/04 06:43:58;;;;;;;;;;;6.70;70.40;;;;;;5055533;28;19912;-73
2021/03/04 06:46:23;;;;;;;;;;;6.90;70.20;;;;;;5036334;28;20386;-73
2021/03/04 06:48:52;;;;;;;;;;;6.80;71.70;;;;;;5055503;28;19905;-72
2021/03/04 06:51:18;;;;;;;;;;;6.70;73.00;;;;;;5054893;28;19982;-73
2021/03/04 06:53:51;;;;;;;;;;;6.60;72.20;;;;;;5054586;28;20293;-73
2021/03/04 06:56:27;;;;;;;;;;;6.70;71.10;;;;;;5052212;28;19915;-73
2021/03/04 06:58:57;;;;;;;;;;;6.90;70.70;;;;;;5054429;28;19919;-72
2021/03/04 07:01:24;;;;;;;;;;;7.00;70.10;;;;;;5036068;28;19912;-73
2021/03/04 07:03:57;;;;;;;;;;;7.00;70.90;;;;;;5053576;28;19912;-73
2021/03/04 07:06:25;;;;;;;;;;;7.10;69.40;;;;;;5038949;28;19931;-73
2021/03/04 07:08:51;;;;;;;;;;;7.30;69.20;;;;;;5047607;28;19913;-73
2021/03/04 07:11:18;;;;;;;;;;;7.50;68.60;;;;;;5039419;28;20424;-73
2021/03/04 07:13:44;;;;;;;;;;;7.80;67.60;;;;;;5068478;28;19999;-73
2021/03/04 07:16:15;;;;;;;;;;;7.80;70.00;;;;;;5057258;28;20396;-74
2021/03/04 07:18:51;;;;;;;;;;;7.70;69.30;;;;;;5058476;28;19916;-74
2021/03/04 07:21:17;;;;;;;;;;;7.60;71.60;;;;;;5071998;28;19908;-74
2021/03/04 07:23:44;;;;;;;;;;;7.70;68.60;;;;;;5069259;28;19992;-73
2021/03/04 07:26:10;;;;;;;;;;;7.90;67.60;;;;;;5058430;28;19908;-72
2021/03/04 07:28:45;;;;;;;;;;;8.10;68.80;;;;;;5040414;28;19955;-72
2021/03/04 07:31:11;;;;;;;;;;;8.30;68.80;;;;;;5019840;28;20007;-72
2021/03/04 07:33:38;;;;;;;;;;;8.50;67.70;;;;;;5021183;28;19913;-72
2021/03/04 07:36:06;;;;;;;;;;;8.70;68.10;;;;;;5038320;28;19916;-73
2021/03/04 07:38:32;;;;;;;;;;;8.90;64.50;;;;;;5051992;28;20217;-74
2021/03/04 07:41:03;;;;;;;;;;;9.10;63.80;;;;;;5057934;28;19905;-73
2021/03/04 07:43:29;;;;;;;;;;;9.20;64.30;;;;;;5058031;28;20003;-72
2021/03/04 07:45:55;;;;;;;;;;;9.10;64.10;;;;;;5056778;28;19905;-74
2021/03/04 07:48:20;;;;;;;;;;;9.10;64.00;;;;;;5061921;28;19919;-73
2021/03/04 07:50:55;;;;;;;;;;;9.20;64.20;;;;;;5057946;28;19919;-73
2021/03/04 07:53:21;;;;;;;;;;;9.30;64.90;;;;;;5057812;28;19962;-74
2021/03/04 07:55:47;;;;;;;;;;;9.40;63.60;;;;;;5057939;28;20305;-73
2021/03/04 07:58:13;;;;;;;;;;;9.50;63.50;;;;;;5057411;28;19908;-73
2021/03/04 08:00:39;;;;;;;;;;;9.60;63.80;;;;;;5039898;28;19905;-73
2021/03/04 08:03:05;;;;;;;;;;;9.70;63.40;;;;;;5057157;28;20358;-73
2021/03/04 08:05:31;;;;;;;;;;;9.90;63.40;;;;;;5049241;28;19916;-73
2021/03/04 08:08:08;;;;;;;;;;;10.00;63.40;;;;;;5043387;28;19977;-74
2021/03/04 08:10:50;;;;;;;;;;;10.10;62.60;;;;;;5055436;28;19916;-73
2021/03/04 08:13:15;;;;;;;;;;;10.20;62.50;;;;;;5057488;28;20358;-73
2021/03/04 08:15:43;;;;;;;;;;;10.30;62.50;;;;;;5056626;28;19955;-74
2021/03/04 08:18:18;;;;;;;;;;;10.40;62.70;;;;;;5056484;28;20297;-74
2021/03/04 08:20:45;;;;;;;;;;;10.30;62.90;;;;;;5039617;28;19915;-74
2021/03/04 08:23:10;;;;;;;;;;;10.70;62.50;;;;;;5057669;28;19905;-73
2021/03/04 08:25:36;;;;;;;;;;;11.00;60.90;;;;;;5052526;28;19999;-74
2021/03/04 08:28:04;;;;;;;;;;;11.60;60.40;;;;;;5057137;28;20305;-74
2021/03/04 08:30:29;;;;;;;;;;;12.40;58.30;;;;;;5055720;28;19912;-73
2021/03/04 08:32:55;;;;;;;;;;;12.90;58.20;;;;;;5054444;28;19905;-73
2021/03/04 08:35:21;;;;;;;;;;;13.30;57.20;;;;;;5057230;28;20220;-74
2021/03/04 08:37:54;;;;;;;;;;;13.60;56.30;;;;;;5055822;28;20613;-74
2021/03/04 08:40:19;;;;;;;;;;;13.90;55.90;;;;;;5056054;28;20220;-74
2021/03/04 08:42:45;;;;;;;;;;;14.20;55.30;;;;;;5054187;28;19991;-74
2021/03/04 08:45:11;;;;;;;;;;;14.80;54.20;;;;;;5037128;28;20282;-73
2021/03/04 08:47:40;;;;;;;;;;;14.80;54.30;;;;;;5034612;28;20294;-74
2021/03/04 08:50:06;;;;;;;;;;;14.90;54.00;;;;;;5036880;28;20311;-73
2021/03/04 08:52:32;;;;;;;;;;;15.10;53.20;;;;;;5037202;28;19905;-73
2021/03/04 08:55:05;;;;;;;;;;;14.90;53.40;;;;;;5055587;28;20225;-73
2021/03/04 08:57:31;;;;;;;;;;;14.90;53.60;;;;;;5075818;28;19934;-73
2021/03/04 09:00:23;;;;;;;;;;;14.40;53.30;;;;;;5057844;28;20260;-74
2021/03/04 09:02:48;;;;;;;;;;;14.20;54.60;;;;;;5052965;28;20308;-73
2021/03/04 09:05:19;;;;;;;;;;;14.00;54.10;;;;;;5056616;28;19905;-73
2021/03/04 09:07:45;;;;;;;;;;;14.30;54.40;;;;;;5056478;28;19952;-74
2021/03/04 09:10:11;;;;;;;;;;;14.50;53.10;;;;;;5060806;28;19955;-74
2021/03/04 09:12:44;;;;;;;;;;;14.80;52.40;;;;;;5069234;28;19908;-73
2021/03/04 09:15:10;;;;;;;;;;;14.90;52.80;;;;;;5075479;28;19904;-73
2021/03/04 09:17:39;;;;;;;;;;;14.70;52.20;;;;;;5061922;28;19992;-73
2021/03/04 09:20:05;;;;;;;;;;;14.40;53.00;;;;;;5054872;28;20011;-73
2021/03/04 09:22:33;;;;;;;;;;;14.00;53.90;;;;;;5056341;28;19977;-73
2021/03/04 09:24:58;;;;;;;;;;;13.80;54.50;;;;;;5055991;28;19978;-73
2021/03/04 09:27:24;;;;;;;;;;;13.90;55.30;;;;;;5056422;28;19908;-73
2021/03/04 09:29:49;;;;;;;;;;;13.90;54.60;;;;;;5057271;28;19919;-73
2021/03/04 09:32:15;;;;;;;;;;;14.20;55.40;;;;;;5035398;28;19905;-73
2021/03/04 09:34:44;;;;;;;;;;;14.20;55.80;;;;;;5036341;28;19913;-73
2021/03/04 09:37:14;;;;;;;;;;;13.90;55.80;;;;;;5053667;28;19927;-73
2021/03/04 09:39:44;;;;;;;;;;;14.10;55.70;;;;;;5055415;28;19909;-73
2021/03/04 09:42:11;;;;;;;;;;;14.40;56.00;;;;;;5041387;28;19917;-73
2021/03/04 09:44:56;;;;;;;;;;;14.60;55.70;;;;;;5055766;28;20002;-73
2021/03/04 09:47:22;;;;;;;;;;;14.60;55.50;;;;;;5034863;28;19908;-73
2021/03/04 09:49:48;;;;;;;;;;;14.80;55.20;;;;;;5037252;28;19909;-73
2021/03/04 09:52:24;;;;;;;;;;;14.80;55.90;;;;;;5055500;28;20311;-73
2021/03/04 09:54:50;;;;;;;;;;;15.00;55.90;;;;;;5055650;28;19911;-73
2021/03/04 09:57:22;;;;;;;;;;;15.10;53.80;;;;;;5049527;28;19996;-74
2021/03/04 09:59:48;;;;;;;;;;;14.60;53.80;;;;;;5050352;28;19909;-73
2021/03/04 10:02:14;;;;;;;;;;;14.40;55.00;;;;;;5040556;28;19958;-73
2021/03/04 10:04:52;;;;;;;;;;;14.70;54.00;;;;;;5067751;28;19904;-73
2021/03/04 10:07:21;;;;;;;;;;;15.10;53.90;;;;;;5055758;28;19909;-73
2021/03/04 10:09:47;;;;;;;;;;;15.30;53.50;;;;;;5037925;28;19923;-73
2021/03/04 10:12:13;;;;;;;;;;;15.80;53.20;;;;;;5037388;28;19908;-73
2021/03/04 10:14:42;;;;;;;;;;;15.70;52.80;;;;;;5054498;28;19936;-73
2021/03/04 10:17:07;;;;;;;;;;;15.70;54.00;;;;;;5054541;28;19909;-74
2021/03/04 10:19:33;;;;;;;;;;;15.40;53.90;;;;;;5033081;28;19909;-72
2021/03/04 10:21:58;;;;;;;;;;;14.60;55.10;;;;;;5045654;28;19917;-72
2021/03/04 10:24:24;;;;;;;;;;;14.40;56.00;;;;;;5018053;28;20229;-72
2021/03/04 10:26:49;;;;;;;;;;;14.20;56.50;;;;;;5036650;28;19913;-72
2021/03/04 10:29:15;;;;;;;;;;;14.60;56.20;;;;;;5039807;28;19915;-73
2021/03/04 10:31:40;;;;;;;;;;;14.80;55.40;;;;;;5055353;28;19938;-74
2021/03/04 10:34:09;;;;;;;;;;;15.40;54.80;;;;;;5055394;28;19934;-73
2021/03/04 10:36:34;;;;;;;;;;;15.80;54.30;;;;;;5055581;28;19905;-73
2021/03/04 10:39:00;;;;;;;;;;;15.10;55.10;;;;;;5054103;28;19909;-74
2021/03/04 10:41:26;;;;;;;;;;;14.60;55.60;;;;;;5057899;28;20197;-74
2021/03/04 10:43:51;;;;;;;;;;;14.40;56.50;;;;;;5058611;28;19909;-73
2021/03/04 10:46:17;;;;;;;;;;;14.20;56.40;;;;;;5058210;28;20252;-73
2021/03/04 10:48:42;;;;;;;;;;;13.70;57.20;;;;;;5044367;28;19909;-73
2021/03/04 10:51:08;;;;;;;;;;;13.80;56.60;;;;;;5050023;28;19920;-73
2021/03/04 10:53:34;;;;;;;;;;;14.00;56.40;;;;;;5059163;28;19939;-73
2021/03/04 10:55:59;;;;;;;;;;;14.20;56.20;;;;;;5058817;28;19963;-73
2021/03/04 10:58:25;;;;;;;;;;;14.10;56.70;;;;;;5058545;28;19913;-73
2021/03/04 11:00:51;;;;;;;;;;;14.30;55.80;;;;;;5057269;28;19916;-73
2021/03/04 11:03:17;;;;;;;;;;;13.90;56.60;;;;;;5059362;28;20348;-73
2021/03/04 11:05:42;;;;;;;;;;;14.00;56.70;;;;;;5046322;28;20004;-73
2021/03/04 11:08:08;;;;;;;;;;;14.00;57.10;;;;;;5055302;28;20320;-73
2021/03/04 11:10:34;;;;;;;;;;;14.40;56.20;;;;;;5057984;28;19920;-73
2021/03/04 11:13:00;;;;;;;;;;;14.20;56.40;;;;;;5059591;28;19908;-73
2021/03/04 11:15:25;;;;;;;;;;;14.20;56.70;;;;;;5058134;28;19965;-73
2021/03/04 11:17:51;;;;;;;;;;;14.10;56.40;;;;;;5057160;28;19966;-73
2021/03/04 11:20:16;;;;;;;;;;;14.40;56.70;;;;;;5040905;28;20316;-73
2021/03/04 11:22:42;;;;;;;;;;;14.40;56.40;;;;;;5058089;28;19912;-72
2021/03/04 11:25:07;;;;;;;;;;;14.80;56.60;;;;;;5058401;28;19916;-73
2021/03/04 11:27:33;;;;;;;;;;;15.20;56.00;;;;;;5058652;28;20296;-73
2021/03/04 11:29:58;;;;;;;;;;;15.80;55.10;;;;;;5056426;28;19939;-73
2021/03/04 11:32:24;;;;;;;;;;;15.40;55.00;;;;;;5057236;28;19905;-73
2021/03/04 11:34:50;;;;;;;;;;;15.20;56.50;;;;;;5041192;28;20281;-74
2021/03/04 11:37:15;;;;;;;;;;;15.20;56.20;;;;;;5038468;28;19909;-73
2021/03/04 11:39:40;;;;;;;;;;;15.60;56.40;;;;;;5041688;28;19909;-73
2021/03/04 11:42:06;;;;;;;;;;;15.10;56.70;;;;;;5038332;28;19988;-73
2021/03/04 11:44:32;;;;;;;;;;;14.90;57.20;;;;;;5051576;28;20317;-73
2021/03/04 11:46:58;;;;;;;;;;;15.30;56.90;;;;;;5057020;28;19909;-73
2021/03/04 11:49:23;;;;;;;;;;;15.40;56.40;;;;;;5056355;28;20220;-73
2021/03/04 11:51:49;;;;;;;;;;;15.20;57.20;;;;;;5040142;28;20260;-73
2021/03/04 11:54:14;;;;;;;;;;;15.40;57.60;;;;;;5057734;28;19924;-73
2021/03/04 11:56:40;;;;;;;;;;;15.30;57.90;;;;;;5057442;28;19950;-73
2021/03/04 11:59:06;;;;;;;;;;;15.10;57.40;;;;;;5057857;28;19931;-73
2021/03/04 12:01:32;;;;;;;;;;;14.80;58.60;;;;;;5053637;28;19922;-73
2021/03/04 12:03:57;;;;;;;;;;;14.80;58.00;;;;;;5074575;28;19909;-73
2021/03/04 12:06:23;;;;;;;;;;;14.60;58.60;;;;;;5057726;28;19931;-73
2021/03/04 12:08:48;;;;;;;;;;;15.10;58.40;;;;;;5057438;28;19909;-73
2021/03/04 12:11:14;;;;;;;;;;;15.40;57.60;;;;;;5046967;28;20316;-73
2021/03/04 12:13:40;;;;;;;;;;;15.30;57.30;;;;;;5056112;28;19970;-73
2021/03/04 12:16:06;;;;;;;;;;;15.20;57.40;;;;;;5039740;28;19908;-73
2021/03/04 12:18:33;;;;;;;;;;;15.20;57.20;;;;;;5057570;28;20207;-73
2021/03/04 12:20:58;;;;;;;;;;;15.00;57.20;;;;;;5057085;28;19916;-73
2021/03/04 12:23:24;;;;;;;;;;;15.00;57.90;;;;;;5057362;28;19913;-73
2021/03/04 12:25:50;;;;;;;;;;;14.80;57.90;;;;;;5058296;28;20505;-73
2021/03/04 12:28:15;;;;;;;;;;;14.60;58.00;;;;;;5031923;28;20215;-73
2021/03/04 12:30:41;;;;;;;;;;;14.70;58.30;;;;;;5055169;28;19948;-72
2021/03/04 12:33:06;;;;;;;;;;;14.70;57.70;;;;;;5039693;28;20355;-73
2021/03/04 12:35:32;;;;;;;;;;;14.70;57.70;;;;;;5055073;28;20225;-72
2021/03/04 12:37:57;;;;;;;;;;;14.10;57.70;;;;;;5057058;28;19908;-72
2021/03/04 12:40:24;;;;;;;;;;;13.70;58.30;;;;;;5028720;28;19913;-73
2021/03/04 12:42:49;;;;;;;;;;;13.50;58.50;;;;;;5037067;28;20293;-73
2021/03/04 12:45:15;;;;;;;;;;;13.30;59.00;;;;;;5055339;28;19957;-73
2021/03/04 12:47:41;;;;;;;;;;;13.40;59.10;;;;;;5055839;28;20008;-73
2021/03/04 12:50:06;;;;;;;;;;;13.70;59.30;;;;;;5056542;28;19913;-73
2021/03/04 12:52:32;;;;;;;;;;;13.90;59.10;;;;;;5054374;28;19916;-72
2021/03/04 12:54:58;;;;;;;;;;;14.10;59.20;;;;;;5051328;28;19955;-72
2021/03/04 12:57:23;;;;;;;;;;;14.50;58.30;;;;;;5055906;28;19923;-72
2021/03/04 12:59:49;;;;;;;;;;;14.90;57.80;;;;;;5055590;28;19908;-70
2021/03/04 13:02:16;;;;;;;;;;;14.90;56.80;;;;;;5054401;28;19909;-71
2021/03/04 13:04:42;;;;;;;;;;;14.60;57.00;;;;;;5051866;28;19916;-72
2021/03/04 13:07:10;;;;;;;;;;;14.60;57.70;;;;;;5040526;28;19924;-72
2021/03/04 13:09:36;;;;;;;;;;;14.60;56.80;;;;;;5055989;28;19913;-72
2021/03/04 13:12:02;;;;;;;;;;;14.40;57.60;;;;;;5054499;28;19912;-71
2021/03/04 13:14:28;;;;;;;;;;;14.30;57.60;;;;;;5056272;28;19908;-72
2021/03/04 13:16:54;;;;;;;;;;;14.20;57.50;;;;;;5054400;28;19935;-72
2021/03/04 13:19:21;;;;;;;;;;;14.00;57.00;;;;;;5043690;28;20023;-72
2021/03/04 13:21:48;;;;;;;;;;;13.90;56.80;;;;;;5057179;28;19919;-71
2021/03/04 13:24:14;;;;;;;;;;;14.10;56.00;;;;;;5039854;28;19921;-72
2021/03/04 13:26:39;;;;;;;;;;;14.30;56.10;;;;;;5054624;28;19909;-71
2021/03/04 13:29:05;;;;;;;;;;;14.20;55.70;;;;;;5054361;28;19943;-71
2021/03/04 13:31:30;;;;;;;;;;;14.20;55.50;;;;;;5054775;28;19912;-71
2021/03/04 13:33:57;;;;;;;;;;;14.50;55.70;;;;;;5055026;28;19905;-71
2021/03/04 13:36:23;;;;;;;;;;;14.90;56.10;;;;;;5055499;28;19913;-71
2021/03/04 13:38:48;;;;;;;;;;;14.90;55.20;;;;;;5055795;28;20198;-71
2021/03/04 13:41:14;;;;;;;;;;;14.90;55.00;;;;;;5055913;28;19909;-70
2021/03/04 13:43:41;;;;;;;;;;;14.90;54.60;;;;;;5055728;28;19905;-70
2021/03/04 13:46:06;;;;;;;;;;;14.70;55.90;;;;;;5054793;28;19909;-70
2021/03/04 13:48:32;;;;;;;;;;;14.60;55.70;;;;;;5055264;28;19992;-70
2021/03/04 13:50:58;;;;;;;;;;;14.70;55.90;;;;;;5055882;28;20362;-70
2021/03/04 13:53:23;;;;;;;;;;;14.90;56.20;;;;;;5055293;28;20194;-70
2021/03/04 13:55:49;;;;;;;;;;;15.00;56.30;;;;;;5055705;28;19909;-70
2021/03/04 13:58:15;;;;;;;;;;;14.70;56.20;;;;;;5054556;28;19912;-70
2021/03/04 14:00:42;;;;;;;;;;;14.40;57.60;;;;;;5053005;28;19909;-70
2021/03/04 14:03:09;;;;;;;;;;;14.10;57.90;;;;;;5052862;28;20401;-71
2021/03/04 14:05:35;;;;;;;;;;;13.90;58.80;;;;;;5054682;28;19912;-71
2021/03/04 14:08:01;;;;;;;;;;;13.80;59.10;;;;;;5055182;28;19909;-71
2021/03/04 14:10:26;;;;;;;;;;;13.60;59.70;;;;;;5053735;28;19916;-72
2021/03/04 14:12:52;;;;;;;;;;;13.40;60.50;;;;;;5055321;28;19962;-71
2021/03/04 14:15:18;;;;;;;;;;;13.30;65.10;;;;;;5056173;28;20296;-71
2021/03/04 14:17:45;;;;;;;;;;;12.70;67.80;;;;;;5050155;28;20317;-70
2021/03/04 14:20:13;;;;;;;;;;;11.20;75.30;;;;;;5056411;28;20481;-70
2021/03/04 14:22:40;;;;;;;;;;;10.10;79.10;;;;;;5057753;28;20335;-71